LYBE/BEG METAR and TAF weather

Enter ICAO airport designator
Station Type Date Time Source
LYBE METAR 2022/05/26 05:30 UTC NOAA

LYBE 260530Z 29010KT CAVOK 19/14 Q1022 NOSIG


Station Type Date Time Source
LYBE Decoded METAR 2022/05/26 05:30 UTC NOAA

Beograd / Surcin, Serbia and Montenegro (LYBE) 44-49N 020-17E 99M
May 26, 2022 - 01:30 AM EDT / 2022.05.26 0530 UTC
Wind: from the WNW (290 degrees) at 12 MPH (10 KT):0
Visibility: greater than 7 mile(s):0
Temperature: 66 F (19 C)
Dew Point: 57 F (14 C)
Relative Humidity: 72%
Pressure (altimeter): 30.18 in. Hg (1022 hPa)
ob: LYBE 260530Z 29010KT CAVOK 19/14 Q1022 NOSIG
cycle: 5

Station Type Date Time Source
LYBE TAF 2022/05/26 06:23 UTC NOAA

TAF LYBE 260500Z 2606/2706 30010KT CAVOK TX27/2613Z TN15/2703Z
BECMG 2616/2618 02004KT

Example: see airport list